Latest Weather Observations for Stenhouse Bay

IDS60801

Issued at 12:21 am CST Friday 29 May 2020 (issued every 10 minutes, with the page automatically refreshed every 10 minutes)

About weather observations | Map of weather stations | Latest weather observations for SA | Other Formats
Station Details ID: 022049 Name: STENHOUSE BAY Lat: -35.28 Lon: 136.94 Height: 42.0 m
Data from the previous 72 hours. | See also: Recent months at Stenhouse Bay
Date/Time
CST
Temp
°C
App
Temp
°C
Dew
Point
°C
Rel
Hum
%
Delta-T
°C
Wind Press
QNH
hPa
Press
MSL
hPa
Rain since
9am
mm
Dir  Spd
km/h
Gust
km/h
Spd
kts
Gust
kts
28/10:30pm 10.9 9.4 9.2 89 0.8 NNW 7 9 4 5 1023.9 1023.9 0.2
28/10:00pm 11.3 9.9 9.6 89 0.9 NNW 7 9 4 5 1024.0 1024.0 0.2
28/09:30pm 10.9 9.0 9.0 88 0.9 NNW 9 11 5 6 1024.0 1024.0 0.2
28/09:00pm 11.3 8.7 9.4 88 1.0 NNW 13 15 7 8 1023.9 1023.9 0.2
28/08:30pm 11.6 9.8 9.3 86 1.2 NNW 9 11 5 6 1023.7 1023.7 0.2
28/08:00pm 12.4 10.7 9.8 84 1.3 N 9 13 5 7 1023.5 1023.5 0.2
28/07:30pm 12.9 11.2 9.9 82 1.5 NNW 9 13 5 7 1023.3 1023.3 0.2
28/07:00pm 12.8 11.0 9.6 81 1.6 NNW 9 11 5 6 1023.2 1023.2 0.2
28/06:30pm 13.5 11.8 9.9 79 1.8 NNW 9 13 5 7 1023.1 1023.1 0.2
28/06:00pm 13.7 12.0 9.7 77 2.0 NNW 9 11 5 6 1023.1 1023.1 0.2
28/05:30pm 13.7 11.5 9.4 75 2.2 NW 11 11 6 6 1023.0 1023.0 0.2
28/05:00pm 14.4 12.0 8.8 69 2.8 NW 11 15 6 8 1022.8 1022.8 0.2
28/04:30pm 16.0 13.5 9.7 66 3.3 NW 13 19 7 10 1022.4 1022.4 0.2
28/04:00pm 15.8 13.1 10.3 70 2.9 NW 15 20 8 11 1022.1 1022.1 0.2
28/03:30pm 16.0 12.5 10.1 68 3.1 NW 19 24 10 13 1022.0 1022.0 0.2
28/03:00pm 17.1 13.5 10.0 63 3.7 NW 19 26 10 14 1021.8 1021.8 0.2
28/02:30pm 17.3 13.2 8.7 57 4.4 NW 20 30 11 16 1021.7 1021.7 0.2
28/02:00pm 17.3 13.7 9.7 61 4.0 NW 19 24 10 13 1021.6 1021.6 0.2
28/01:30pm 16.7 13.0 10.3 66 3.4 NW 20 30 11 16 1021.9 1021.9 0.0
28/01:00pm 16.6 12.1 8.6 59 4.1 WNW 22 30 12 16 1022.0 1022.0 0.0
28/12:30pm 17.2 13.4 8.9 58 4.3 NW 19 28 10 15 1022.3 1022.3 0.0
28/12:00pm 16.9 13.1 9.1 60 4.0 NW 19 26 10 14 1022.6 1022.6 0.0
28/11:30am 16.6 13.8 10.0 65 3.5 NW 15 20 8 11 1022.9 1022.9 0.0
28/11:00am 16.6 13.1 10.2 66 3.4 NW 19 28 10 15 1023.0 1023.0 0.0
28/10:30am 15.4 12.1 9.5 68 3.0 NW 17 24 9 13 1023.1 1023.1 0.0
28/10:00am 15.3 12.7 10.7 74 2.4 NW 15 22 8 12 1023.0 1023.0 0.0
28/09:30am 14.4 11.9 11.2 81 1.7 NW 15 20 8 11 1022.8 1022.8 0.0
28/09:00am 13.1 11.4 11.3 89 0.9 NW 11 13 6 7 1022.6 1022.6 2.8
28/08:30am 12.8 11.5 11.4 91 0.7 WNW 9 13 5 7 1022.3 1022.3 2.8
28/08:00am 11.9 9.6 10.6 92 0.7 WNW 13 15 7 8 1022.1 1022.1 2.8
28/07:30am 11.3 8.9 10.2 93 0.6 NW 13 13 7 7 1021.6 1021.6 2.8
28/07:00am 10.7 8.2 9.6 93 0.6 NW 13 15 7 8 1021.3 1021.3 2.8
28/06:30am 10.7 7.8 9.5 92 0.6 NW 15 15 8 8 1020.8 1020.8 2.8
28/06:00am 10.6 8.8 9.4 92 0.6 NW 9 13 5 7 1020.6 1020.6 2.8
28/05:30am 11.0 9.6 9.6 91 0.7 NW 7 9 4 5 1020.4 1020.4 2.8
28/05:00am 11.9 10.0 10.5 91 0.7 WNW 11 17 6 9 1020.5 1020.5 2.8
28/04:30am 11.9 8.9 10.6 92 0.7 WNW 17 24 9 13 1020.5 1020.5 2.8
28/04:00am 11.0 9.3 9.8 92 0.6 NW 9 11 5 6 1020.2 1020.2 2.6
28/03:30am 11.1 8.6 9.7 91 0.7 WNW 13 13 7 7 1020.3 1020.3 2.6
28/03:00am 11.5 9.5 10.2 92 0.7 WSW 11 13 6 7 1020.3 1020.3 2.6
28/02:30am 11.8 9.5 10.4 91 0.7 W 13 19 7 10 1020.3 1020.3 2.6
28/02:00am 11.5 8.7 10.1 91 0.7 W 15 19 8 10 1020.2 1020.2 2.6
28/01:30am 11.5 9.1 10.1 91 0.7 W 13 17 7 9 1020.0 1020.0 2.6
28/01:00am 11.6 9.2 10.2 91 0.7 W 13 15 7 8 1020.2 1020.2 2.6
28/12:30am 11.8 9.5 10.4 91 0.7 W 13 17 7 9 1020.2 1020.2 2.6
28/12:00am 12.0 10.1 10.6 91 0.7 W 11 15 6 8 1020.4 1020.4 2.6
 
Date/Time
CST
Temp
°C
App
Temp
°C
Dew
Point
°C
Rel
Hum
%
Delta-T
°C
Wind Press
QNH
hPa
Press
MSL
hPa
Rain since
9am
mm
Dir  Spd
km/h
Gust
km/h
Spd
kts
Gust
kts
27/11:30pm 11.7 9.3 10.1 90 0.8 W 13 15 7 8 1020.3 1020.3 2.6
27/11:00pm 12.5 10.0 10.9 90 0.8 W 15 24 8 13 1020.2 1020.2 2.6
27/10:30pm 12.1 9.4 10.5 90 0.8 W 15 17 8 9 1020.1 1020.1 2.6
27/10:00pm 12.0 10.1 10.4 90 0.8 W 11 13 6 7 1020.1 1020.1 2.6
27/09:30pm 12.4 11.3 10.6 89 0.9 W 7 11 4 6 1020.1 1020.1 2.4
27/09:00pm 12.2 11.4 9.8 85 1.2 W 4 7 2 4 1019.9 1019.9 1.6
27/08:30pm 12.3 11.1 9.7 84 1.3 WNW 6 6 3 3 1019.8 1019.8 1.6
27/08:00pm 12.4 11.2 9.6 83 1.4 WNW 6 7 3 4 1019.6 1019.6 1.6
27/07:30pm 12.3 10.1 9.5 83 1.4 W 11 13 6 7 1019.4 1019.4 1.6
27/07:00pm 12.5 10.1 9.9 84 1.3 W 13 15 7 8 1019.2 1019.2 1.6
27/06:30pm 12.5 10.8 9.9 84 1.3 W 9 11 5 6 1019.1 1019.1 1.6
27/06:00pm 12.6 10.5 9.6 82 1.5 W 11 11 6 6 1018.9 1018.9 1.6
27/05:30pm 13.2 11.4 9.3 77 2.0 W 9 9 5 5 1018.6 1018.6 1.6
27/05:00pm 14.8 12.2 9.4 70 2.8 W 13 19 7 10 1018.3 1018.3 1.6
27/04:30pm 15.7 12.8 9.6 67 3.2 W 15 20 8 11 1018.2 1018.2 1.6
27/04:00pm 16.2 14.3 10.5 69 3.0 W 11 19 6 10 1018.0 1018.0 1.6
27/03:30pm 15.6 12.5 10.2 70 2.8 WSW 17 22 9 12 1018.0 1018.0 1.6
27/03:00pm 16.7 14.6 11.2 70 3.0 WSW 13 24 7 13 1017.8 1017.8 1.6
27/02:30pm 17.2 14.6 10.6 65 3.5 WSW 15 26 8 14 1017.7 1017.7 1.6
27/02:00pm 15.8 13.0 10.1 69 3.0 W 15 20 8 11 1017.7 1017.7 1.6
27/01:30pm 17.5 15.0 10.9 65 3.6 WSW 15 22 8 12 1017.8 1017.8 1.6
27/01:00pm 16.5 13.9 10.8 69 3.0 WSW 15 22 8 12 1017.9 1017.9 1.6
27/12:30pm 16.2 13.9 10.5 69 3.0 WSW 13 22 7 12 1018.0 1018.0 1.6
27/12:00pm 15.9 13.8 11.1 73 2.6 WSW 13 19 7 10 1018.2 1018.2 1.6
27/11:30am 15.7 14.0 12.6 82 1.7 WSW 13 19 7 10 1018.5 1018.5 1.6
27/11:00am 14.6 14.0 12.3 86 1.3 W 7 13 4 7 1018.9 1018.9 1.6
27/10:30am 16.1 14.8 13.8 86 1.3 W 13 19 7 10 1018.9 1018.9 1.4
27/10:00am 14.5 12.9 12.9 90 0.9 WSW 13 20 7 11 1018.8 1018.8 1.4
27/09:30am 14.4 12.5 11.7 84 1.4 W 13 20 7 11 1018.5 1018.5 0.8
27/09:00am 14.3 12.8 12.0 86 1.2 WNW 11 15 6 8 1018.3 1018.3 0.4
27/08:30am 14.4 11.7 11.6 83 1.5 WNW 17 24 9 13 1018.0 1018.0 0.4
27/08:00am 14.0 11.7 11.7 86 1.2 WNW 15 20 8 11 1017.7 1017.7 0.4
27/07:30am 13.5 11.2 11.6 88 1.0 WNW 15 20 8 11 1017.3 1017.3 0.4
27/07:00am 13.6 10.2 11.3 86 1.2 WNW 20 30 11 16 1016.9 1016.9 0.4
27/06:30am 14.0 10.8 11.3 84 1.4 WNW 19 26 10 14 1016.6 1016.5 0.4
27/06:00am 13.9 10.7 11.2 84 1.4 WNW 19 28 10 15 1016.4 1016.3 0.4
27/05:30am 13.6 10.2 11.1 85 1.3 NW 20 26 11 14 1016.2 1016.1 0.4
27/05:00am 14.3 10.7 10.7 79 1.9 NW 20 32 11 17 1016.1 1016.0 0.4
27/04:30am 14.2 10.6 10.6 79 1.9 NW 20 28 11 15 1016.0 1015.9 0.4
27/04:00am 13.7 11.2 10.9 83 1.5 NW 15 22 8 12 1015.9 1015.8 0.4
27/03:30am 13.3 10.6 10.3 82 1.6 NW 15 19 8 10 1015.8 1015.7 0.4
27/03:00am 13.4 10.3 10.4 82 1.6 NW 17 22 9 12 1015.9 1015.8 0.4
27/02:30am 13.7 10.3 10.5 81 1.7 NW 19 30 10 16 1015.8 1015.7 0.4
27/02:00am 13.9 10.5 10.5 80 1.8 NW 19 28 10 15 1015.7 1015.6 0.4
27/01:30am 13.8 10.3 10.2 79 1.9 NW 19 26 10 14 1015.7 1015.6 0.4
27/01:00am 14.0 9.8 9.8 76 2.2 NW 22 32 12 17 1015.8 1015.7 0.4
27/12:30am 14.2 10.8 10.4 78 2.0 NW 19 26 10 14 1015.9 1015.8 0.4
27/12:00am 14.2 10.1 8.8 70 2.7 NNW 20 30 11 16 1016.0 1015.9 0.4
 
Date/Time
CST
Temp
°C
App
Temp
°C
Dew
Point
°C
Rel
Hum
%
Delta-T
°C
Wind Press
QNH
hPa
Press
MSL
hPa
Rain since
9am
mm
Dir  Spd
km/h
Gust
km/h
Spd
kts
Gust
kts
26/11:30pm 14.7 10.5 8.2 65 3.3 NW 20 28 11 15 1016.0 1015.9 0.4
26/11:00pm 14.5 10.3 7.5 63 3.5 NW 19 28 10 15 1016.0 1015.9 0.4
26/10:30pm 14.6 10.5 8.5 67 3.1 NNW 20 41 11 22 1016.1 1016.0 0.4
26/10:00pm 14.6 10.4 8.1 65 3.3 NNW 20 28 11 15 1016.1 1016.0 0.4
26/09:30pm 14.4 10.1 7.9 65 3.2 NNW 20 28 11 15 1016.0 1015.9 0.4
26/09:00pm 14.2 10.4 7.7 65 3.2 N 17 24 9 13 1016.2 1016.1 0.4
26/08:30pm 14.4 10.3 7.7 64 3.3 N 19 28 10 15 1016.0 1015.9 0.4
26/08:00pm 13.9 9.8 7.7 66 3.1 N 19 24 10 13 1015.8 1015.7 0.4
26/07:30pm 14.1 9.7 7.4 64 3.3 N 20 26 11 14 1015.7 1015.6 0.4
26/07:00pm 13.9 9.1 7.4 65 3.2 N 22 33 12 18 1015.5 1015.4 0.4
26/06:30pm 13.6 8.8 7.4 66 3.0 N 22 33 12 18 1015.2 1015.1 0.4
26/06:00pm 13.2 8.0 7.4 68 2.8 N 24 37 13 20 1014.6 1014.5 0.4
26/05:30pm 13.2 8.0 7.4 68 2.8 N 24 32 13 17 1014.3 1014.2 0.4
26/05:00pm 12.4 8.2 8.3 76 2.0 N 20 28 11 15 1014.1 1014.0 0.4
26/04:30pm 14.4 9.5 6.7 60 3.7 N 22 28 12 15 1014.1 1014.0 0.0
26/04:00pm 14.8 8.8 6.9 59 3.9 NNW 28 46 15 25 1014.2 1014.1 0.0
26/03:30pm 15.2 9.2 7.0 58 4.0 N 28 43 15 23 1014.1 1014.0 0.0
26/03:00pm 14.9 8.4 6.5 57 4.1 N 30 43 16 23 1014.1 1014.0 0.0
26/02:30pm 14.7 8.0 7.3 61 3.6 N 32 44 17 24 1014.6 1014.5 0.0
26/02:19pm 14.7 8.4 7.3 61 3.6 N 30 48 16 26 1014.4 1014.3 0.0
26/02:00pm 14.5 7.6 7.3 62 3.5 N 33 44 18 24 1014.4 1014.3 0.0
26/01:30pm 14.2 7.4 6.8 61 3.6 N 32 43 17 23 1014.5 1014.4 0.0
26/01:00pm 14.4 7.0 6.7 60 3.7 N 35 48 19 26 1014.6 1014.5 0.0
26/12:30pm 14.1 7.3 6.9 62 3.5 N 32 46 17 25 1015.0 1014.9 0.0
26/12:00pm 13.3 6.2 6.4 63 3.3 N 33 46 18 25 1015.3 1015.2 0.0
26/11:30am 13.5 5.5 5.9 60 3.6 N 37 50 20 27 1016.1 1016.0 0.0
26/11:00am 14.8 7.7 6.4 57 4.1 N 33 48 18 26 1016.5 1016.4 0.0
26/10:30am 15.0 8.6 6.8 58 4.0 N 30 43 16 23 1016.8 1016.8 0.0
26/10:00am 14.3 6.1 6.4 59 3.8 N 39 54 21 29 1017.3 1017.3 0.0
26/09:51am 14.3 7.2 6.6 60 3.7 N 33 54 18 29 1017.3 1017.3 0.0
26/09:30am 13.4 6.9 6.5 63 3.3 N 30 43 16 23 1017.6 1017.6 0.0
26/09:00am 12.5 7.8 7.6 72 2.4 N 22 28 12 15 1017.8 1017.8 0.0
26/08:30am 11.0 6.2 7.3 78 1.8 N 22 30 12 16 1017.7 1017.7 0.0
26/08:00am 10.3 5.5 7.4 82 1.4 N 22 32 12 17 1017.7 1017.7 0.0
26/07:30am 9.8 4.9 6.9 82 1.4 N 22 30 12 16 1017.7 1017.7 0.0
26/07:00am 9.5 4.9 6.6 82 1.4 N 20 26 11 14 1017.7 1017.7 0.0
26/06:30am 9.3 4.8 6.2 81 1.4 NNE 19 24 10 13 1017.6 1017.6 0.0
26/06:00am 8.8 4.2 5.7 81 1.4 N 19 24 10 13 1017.6 1017.6 0.0
26/05:30am 8.9 4.3 5.8 81 1.4 NNE 19 24 10 13 1017.6 1017.6 0.0
26/05:00am 8.7 4.1 5.8 82 1.3 NNE 19 26 10 14 1017.8 1017.8 0.0
26/04:30am 8.7 4.3 6.7 87 0.9 NNE 19 24 10 13 1017.8 1017.8 0.0
26/04:00am 8.3 3.9 6.4 88 0.9 N 19 24 10 13 1018.1 1018.1 0.0
26/03:30am 8.1 4.0 6.1 87 0.9 N 17 20 9 11 1018.5 1018.5 0.0
26/03:00am 8.9 4.4 6.9 87 0.9 NNE 20 26 11 14 1018.5 1018.5 0.0
26/02:30am 9.2 4.7 7.0 86 1.0 NNE 20 26 11 14 1018.7 1018.7 0.0
26/02:00am 9.6 5.2 7.4 86 1.0 NNE 20 26 11 14 1019.0 1019.0 0.0
26/01:30am 9.3 4.9 6.7 84 1.2 NNE 19 24 10 13 1019.0 1019.0 0.0
26/01:00am 9.2 5.1 6.3 82 1.3 NNE 17 22 9 12 1019.5 1019.5 0.0
26/12:30am 9.9 5.5 6.6 80 1.5 NNE 19 26 10 14 1019.6 1019.6 0.0

Other formats

Comma delimited format used in spreadsheet applications
http://www.bom.gov.au/fwo/IDS60801/IDS60801.95806.axf

JavaScript Object Notation format (JSON) in row-major order
http://www.bom.gov.au/fwo/IDS60801/IDS60801.95806.json

Data quality

Most of these data are generated automatically and are frequently updated. Quality checks on data are not normally performed. It is possible for incorrect values to appear. Refer to information at About Latest Weather Observations and please check the disclaimer before using these data.